Time;durP1;ratioP1;P1;durP2;ratioP2;P2;SDS_P1;SDS_P2;PMS_P1;PMS_P2;Temp;Humidity;BMP_temperature;BMP_pressure;BME280_temperature;BME280_humidity;BME280_pressure;Samples;Min_cycle;Max_cycle;Signal;HPM_P1;HPM_P2
2021/11/30 00:01:28;;;;;;;6.88;5.15;;;2.30;78.60;;;1.23;65.98;94098.09;5053826;28;20198;-79
2021/11/30 00:03:56;;;;;;;8.35;5.45;;;2.30;78.60;;;1.26;66.17;94095.19;5054598;28;20284;-79
2021/11/30 00:06:23;;;;;;;7.65;5.35;;;2.30;78.60;;;1.20;66.09;94082.09;5037990;28;20203;-80
2021/11/30 00:08:57;;;;;;;7.00;5.30;;;2.30;78.60;;;1.27;66.03;94098.59;5037970;28;20277;-80
2021/11/30 00:11:24;;;;;;;6.13;4.72;;;2.40;78.70;;;1.28;65.93;94107.94;5071513;28;20199;-80
2021/11/30 00:13:51;;;;;;;6.93;5.25;;;2.40;78.70;;;1.28;65.79;94107.94;5070590;28;20310;-79
2021/11/30 00:16:18;;;;;;;8.65;5.03;;;2.40;78.60;;;1.32;65.93;94101.50;5053833;28;20195;-79
2021/11/30 00:18:45;;;;;;;6.22;4.90;;;2.40;78.60;;;1.34;66.03;94109.91;5036953;28;20219;-78
2021/11/30 00:21:13;;;;;;;5.68;4.63;;;2.40;78.60;;;1.34;65.91;94109.09;5037579;28;20191;-80
2021/11/30 00:23:40;;;;;;;7.22;4.72;;;2.40;78.60;;;1.34;65.99;94106.50;5070113;28;20318;-79
2021/11/30 00:26:07;;;;;;;7.78;4.85;;;2.40;78.50;;;1.34;65.69;94114.25;5071013;28;20241;-80
2021/11/30 00:28:35;;;;;;;6.22;4.55;;;2.40;78.50;;;1.36;65.89;94117.50;5057572;28;20191;-80
2021/11/30 00:31:02;;;;;;;7.00;5.20;;;2.40;78.40;;;1.38;65.73;94120.72;5040595;28;20203;-80
2021/11/30 00:33:29;;;;;;;7.53;4.70;;;2.40;78.40;;;1.38;65.65;94125.91;5054402;28;20269;-79
2021/11/30 00:35:56;;;;;;;6.97;4.78;;;2.50;78.40;;;1.40;65.66;94129.97;5056941;28;20243;-80
2021/11/30 00:38:26;;;;;;;7.78;4.65;;;2.40;78.40;;;1.37;65.84;94132.06;5052649;28;20515;-79
2021/11/30 00:40:53;;;;;;;6.55;4.90;;;2.50;78.40;;;1.41;65.89;94143.69;5051456;28;20618;-80
2021/11/30 00:43:23;;;;;;;4.57;4.13;;;2.50;78.40;;;1.42;65.77;94148.69;5055812;28;20206;-80
2021/11/30 00:45:56;;;;;;;7.10;5.13;;;2.50;78.40;;;1.41;65.68;94154.03;5039896;28;20265;-79
2021/11/30 00:48:30;;;;;;;6.80;5.03;;;2.50;78.40;;;1.43;65.60;94157.28;5037564;28;20207;-78
2021/11/30 00:51:09;;;;;;;6.03;4.40;;;2.50;78.30;;;1.44;65.69;94153.69;5046918;28;20382;-79
2021/11/30 00:53:39;;;;;;;6.78;4.55;;;2.50;78.30;;;1.47;65.58;94168.91;5065118;28;20588;-79
2021/11/30 00:56:08;;;;;;;5.28;4.75;;;2.50;78.30;;;1.49;65.74;94171.34;5072321;28;20201;-80
2021/11/30 00:58:36;;;;;;;6.30;4.70;;;2.50;78.30;;;1.46;65.59;94169.88;5054595;28;20204;-79
2021/11/30 01:01:04;;;;;;;6.43;4.35;;;2.60;78.40;;;1.44;65.53;94156.28;5060425;28;20259;-79
2021/11/30 01:03:32;;;;;;;6.93;4.50;;;2.60;78.40;;;1.46;65.50;94159.53;5063563;28;20653;-79
2021/11/30 01:05:59;;;;;;;6.47;4.55;;;2.50;78.30;;;1.49;65.75;94163.59;5056896;28;20199;-79
2021/11/30 01:08:27;;;;;;;5.93;4.88;;;2.60;78.30;;;1.46;65.59;94169.06;5055666;28;20245;-79
2021/11/30 01:10:54;;;;;;;6.18;4.70;;;2.50;78.20;;;1.50;65.56;94168.63;5056673;28;20298;-79
2021/11/30 01:13:22;;;;;;;5.25;4.10;;;2.60;78.30;;;1.50;65.54;94173.78;5063508;28;20219;-80
2021/11/30 01:15:49;;;;;;;5.35;4.07;;;2.60;78.20;;;1.52;65.51;94171.03;5054965;28;20291;-80
2021/11/30 01:18:17;;;;;;;5.28;4.55;;;2.60;78.20;;;1.43;65.13;94163.25;5044167;28;20199;-77
2021/11/30 01:20:45;;;;;;;6.70;4.78;;;2.60;78.20;;;1.46;65.41;94162.13;5054551;28;20273;-78
2021/11/30 01:23:12;;;;;;;5.00;4.25;;;2.60;78.20;;;1.51;65.55;94172.00;5054852;28;20661;-79
2021/11/30 01:25:40;;;;;;;6.50;4.30;;;2.60;78.20;;;1.52;65.41;94168.44;5046159;28;20211;-78
2021/11/30 01:28:07;;;;;;;5.20;4.13;;;2.60;78.30;;;1.53;65.71;94181.22;5046515;28;20224;-78
2021/11/30 01:30:34;;;;;;;5.57;4.07;;;2.70;78.30;;;1.54;65.35;94179.47;5051328;28;20246;-78
2021/11/30 01:33:01;;;;;;;5.07;4.43;;;2.60;78.30;;;1.55;65.41;94186.22;5037704;28;20269;-80
2021/11/30 01:35:29;;;;;;;5.90;4.20;;;2.60;78.20;;;1.52;65.16;94186.53;5054314;28;20242;-78
2021/11/30 01:37:56;;;;;;;5.38;4.75;;;2.70;78.30;;;1.50;65.36;94188.47;5095599;28;20195;-78
2021/11/30 01:40:25;;;;;;;6.85;4.40;;;2.60;78.10;;;1.49;65.35;94187.66;5051519;28;20294;-78
2021/11/30 01:42:55;;;;;;;5.10;4.22;;;2.60;78.10;;;1.47;65.35;94181.03;5036859;28;20650;-78
2021/11/30 01:45:31;;;;;;;6.07;4.35;;;2.60;78.10;;;1.48;65.50;94188.63;5051297;28;20215;-79
2021/11/30 01:50:34;;;;;;;5.32;4.47;;;2.60;78.20;;;1.49;65.49;94189.41;5054380;28;20219;-80
2021/11/30 01:53:02;;;;;;;5.85;4.10;;;2.50;78.10;;;1.47;65.48;94175.88;5054125;28;20207;-80
2021/11/30 01:55:31;;;;;;;5.38;4.15;;;2.60;78.20;;;1.45;65.44;94176.00;5037435;28;20229;-80
2021/11/30 01:58:00;;;;;;;5.60;4.53;;;2.60;78.20;;;1.42;65.34;94169.38;5038552;28;20295;-80
2021/11/30 02:00:29;;;;;;;5.47;4.60;;;2.50;78.10;;;1.47;65.68;94173.28;5079166;28;20207;-80
2021/11/30 02:02:57;;;;;;;5.32;4.80;;;2.50;78.10;;;1.46;65.57;94177.63;5072547;28;20757;-80
2021/11/30 02:05:24;;;;;;;5.10;4.10;;;2.60;78.20;;;1.46;65.21;94171.66;5069894;28;20219;-80
2021/11/30 02:07:51;;;;;;;5.53;4.57;;;2.50;78.20;;;1.47;65.45;94184.41;5071781;28;20195;-80
2021/11/30 02:10:19;;;;;;;4.97;3.90;;;2.60;78.20;;;1.49;65.56;94176.50;5046915;28;20265;-80
2021/11/30 02:12:47;;;;;;;5.05;3.78;;;2.50;78.10;;;1.51;65.24;94187.50;5080495;28;20223;-80
2021/11/30 02:15:15;;;;;;;5.55;4.00;;;2.60;78.20;;;1.51;65.58;94179.75;5055788;28;20219;-80
2021/11/30 02:17:43;;;;;;;4.65;4.00;;;2.60;78.20;;;1.51;65.38;94180.53;5050303;28;20238;-80
2021/11/30 02:20:11;;;;;;;4.40;3.72;;;2.50;78.10;;;1.52;65.14;94182.16;5055224;28;20315;-80
2021/11/30 02:22:38;;;;;;;5.00;4.22;;;2.60;78.20;;;1.48;65.66;94172.28;5046119;28;20207;-80
2021/11/30 02:25:06;;;;;;;4.32;3.90;;;2.60;78.20;;;1.47;65.31;94162.94;5036795;28;20306;-80
2021/11/30 02:27:34;;;;;;;4.10;3.70;;;2.60;78.30;;;1.47;65.29;94166.31;5055513;28;20192;-80
2021/11/30 02:30:02;;;;;;;5.30;4.05;;;2.60;78.20;;;1.50;65.49;94166.03;5037761;28;20212;-80
2021/11/30 02:32:29;;;;;;;4.32;3.80;;;2.50;78.10;;;1.46;65.32;94167.28;5036535;28;20332;-81
2021/11/30 02:34:56;;;;;;;4.82;4.05;;;2.60;78.20;;;1.47;65.12;94163.75;5055395;28;20246;-81
2021/11/30 02:37:26;;;;;;;5.72;3.97;;;2.50;78.10;;;1.47;65.52;94168.13;5071948;28;20314;-81
2021/11/30 02:39:54;;;;;;;5.22;4.10;;;2.60;78.10;;;1.39;65.02;94166.28;5055601;28;20695;-81
2021/11/30 02:42:21;;;;;;;3.95;3.47;;;2.50;77.90;;;1.35;65.03;94164.97;5055873;28;20658;-81
2021/11/30 02:44:48;;;;;;;4.00;3.60;;;2.50;77.80;;;1.26;65.23;94175.25;5055794;28;20676;-82
2021/11/30 02:47:16;;;;;;;4.60;3.83;;;2.50;77.70;;;1.21;64.74;94166.34;5055455;28;20294;-81
2021/11/30 02:49:44;;;;;;;3.90;3.55;;;2.50;77.60;;;1.14;65.25;94165.34;5037589;28;20223;-82
2021/11/30 02:52:19;;;;;;;4.68;3.80;;;2.40;77.60;;;1.05;65.28;94169.63;5055556;28;20191;-82
2021/11/30 02:54:53;;;;;;;4.53;3.60;;;2.40;77.60;;;0.96;65.18;94163.59;5072347;28;20230;-81
2021/11/30 02:57:22;;;;;;;4.13;3.72;;;2.30;77.50;;;0.91;65.25;94173.59;5065110;28;20572;-81
2021/11/30 02:59:53;;;;;;;4.22;3.83;;;2.20;77.50;;;0.89;65.10;94175.50;5069904;28;20314;-80
2021/11/30 03:02:29;;;;;;;4.20;3.72;;;2.20;77.50;;;0.84;65.42;94178.53;5071908;28;20191;-80
2021/11/30 03:04:59;;;;;;;4.45;3.95;;;2.20;77.50;;;0.78;65.52;94181.72;5070826;28;20753;-80
2021/11/30 03:07:36;;;;;;;6.30;4.10;;;2.10;77.60;;;0.75;65.99;94177.66;5068590;28;20636;-81
2021/11/30 03:10:17;;;;;;;3.97;3.60;;;2.10;77.80;;;0.72;65.93;94183.13;5055933;28;20207;-81
2021/11/30 03:12:45;;;;;;;4.43;3.50;;;2.10;77.90;;;0.69;66.14;94186.00;5072053;28;20640;-81
2021/11/30 03:15:19;;;;;;;4.25;3.85;;;2.00;77.90;;;0.74;65.95;94188.16;5054935;28;20219;-81
2021/11/30 03:17:48;;;;;;;4.13;3.60;;;2.00;78.10;;;0.74;66.27;94185.56;5055343;28;20191;-81
2021/11/30 03:20:16;;;;;;;4.63;3.67;;;1.90;78.10;;;0.78;66.32;94177.38;5054466;28;20310;-81
2021/11/30 03:22:46;;;;;;;6.15;3.95;;;1.90;78.20;;;0.83;66.08;94183.84;5088715;28;20333;-82
2021/11/30 03:25:14;;;;;;;4.57;3.63;;;2.00;78.40;;;0.88;66.52;94187.63;5055130;28;20653;-81
2021/11/30 03:27:42;;;;;;;6.25;4.00;;;2.00;78.50;;;0.94;66.35;94181.00;5054548;28;20200;-81
2021/11/30 03:30:11;;;;;;;4.68;4.20;;;2.00;78.60;;;0.98;66.34;94194.44;5067402;28;20635;-82
2021/11/30 03:35:24;;;;;;;4.70;4.20;;;2.10;78.70;;;1.01;66.42;94183.81;5051326;28;20695;-81
2021/11/30 03:37:51;;;;;;;5.65;4.32;;;2.10;78.70;;;1.01;66.24;94184.63;5040735;28;20206;-80
2021/11/30 03:40:19;;;;;;;4.70;4.20;;;2.10;78.80;;;0.97;66.45;94178.16;5070974;28;20225;-81
2021/11/30 03:42:46;;;;;;;4.88;4.20;;;2.10;78.70;;;1.04;66.52;94181.75;5054709;28;20199;-81
2021/11/30 03:45:14;;;;;;;4.50;4.10;;;2.20;78.80;;;1.07;66.29;94186.59;5054509;28;20225;-80
2021/11/30 03:47:42;;;;;;;5.43;4.47;;;2.20;78.80;;;1.07;66.56;94184.00;5050966;28;20238;-81
2021/11/30 03:50:11;;;;;;;5.20;4.22;;;2.20;78.80;;;1.10;66.61;94180.34;5070557;28;20285;-80
2021/11/30 03:52:38;;;;;;;5.20;4.20;;;2.20;78.80;;;1.12;66.52;94191.31;5097258;28;20212;-81
2021/11/30 03:55:08;;;;;;;5.40;4.45;;;2.20;78.80;;;1.14;66.33;94199.72;5034629;28;20847;-81
2021/11/30 03:57:55;;;;;;;5.30;4.22;;;2.20;78.90;;;1.18;66.45;94184.75;5051088;28;20275;-81
2021/11/30 04:00:22;;;;;;;5.03;4.20;;;2.20;78.80;;;1.19;66.52;94200.06;5051106;28;20262;-82
2021/11/30 04:02:49;;;;;;;4.85;4.32;;;2.20;78.80;;;1.19;66.37;94184.56;5069900;28;20199;-81
2021/11/30 04:05:16;;;;;;;4.40;4.00;;;2.30;78.80;;;1.19;66.21;94176.84;5054238;28;20239;-81
2021/11/30 04:07:43;;;;;;;5.10;4.25;;;2.30;78.80;;;1.26;66.16;94182.22;5050390;28;20226;-81
2021/11/30 04:10:10;;;;;;;4.78;4.05;;;2.30;78.80;;;1.26;66.18;94189.97;5034554;28;20250;-81
2021/11/30 04:12:37;;;;;;;5.35;4.25;;;2.30;78.80;;;1.23;66.32;94185.91;5034837;28;20603;-81
2021/11/30 04:15:05;;;;;;;4.18;3.78;;;2.40;78.90;;;1.30;66.08;94195.63;5040443;28;20215;-81
2021/11/30 04:17:33;;;;;;;4.93;4.18;;;2.30;78.70;;;1.30;66.24;94187.88;5067609;28;20196;-81
2021/11/30 04:20:00;;;;;;;4.50;4.05;;;2.40;78.80;;;1.30;65.94;94183.50;5084277;28;20265;-81
2021/11/30 04:22:27;;;;;;;4.60;3.92;;;2.40;78.70;;;1.27;66.14;94187.22;5084452;28;20613;-80
2021/11/30 04:24:54;;;;;;;4.85;4.22;;;2.50;78.70;;;1.32;66.04;94189.34;5066122;28;20235;-80
2021/11/30 04:27:21;;;;;;;4.78;4.28;;;2.40;79.50;;;1.31;65.93;94179.97;5054384;28;20268;-82
2021/11/30 04:29:49;;;;;;;4.45;4.05;;;2.40;78.60;;;1.39;65.63;94182.59;5054208;28;20227;-81
2021/11/30 04:32:16;;;;;;;4.60;4.10;;;2.40;78.60;;;1.41;65.89;94183.25;5054500;28;20613;-82
2021/11/30 04:34:43;;;;;;;5.10;4.45;;;2.50;78.50;;;1.38;65.39;94177.56;5070736;28;20225;-81
2021/11/30 04:37:11;;;;;;;4.80;4.30;;;2.50;78.40;;;1.43;65.53;94188.28;5074963;28;20214;-82
2021/11/30 04:39:38;;;;;;;5.05;4.55;;;2.50;78.40;;;1.42;65.04;94184.88;5067154;28;20319;-81
2021/11/30 04:42:06;;;;;;;4.75;3.70;;;2.50;78.20;;;1.47;65.20;94193.94;5050530;28;20203;-80
2021/11/30 04:44:35;;;;;;;4.93;4.30;;;2.50;78.30;;;1.47;65.21;94191.38;5064836;28;20216;-80
2021/11/30 04:47:08;;;;;;;4.15;3.75;;;2.60;78.30;;;1.51;65.33;94195.25;5049777;28;20191;-81
2021/11/30 04:49:43;;;;;;;5.72;4.10;;;2.50;78.20;;;1.51;65.23;94198.63;5093297;28;20321;-81
2021/11/30 04:52:13;;;;;;;4.75;4.05;;;2.50;78.10;;;1.52;64.80;94191.72;5078561;28;20191;-80
2021/11/30 04:54:41;;;;;;;4.68;4.03;;;2.60;78.10;;;1.53;64.93;94186.38;5049420;28;20314;-81
2021/11/30 04:57:10;;;;;;;4.22;3.83;;;2.70;78.20;;;1.60;65.22;94200.31;5051306;28;20204;-81
2021/11/30 04:59:37;;;;;;;4.75;3.78;;;2.70;78.20;;;1.60;65.14;94194.34;5066628;28;20706;-81
2021/11/30 05:02:04;;;;;;;5.15;4.53;;;2.60;78.10;;;1.62;65.21;94199.34;5066849;28;20437;-81
2021/11/30 05:04:33;;;;;;;5.20;4.10;;;2.70;78.10;;;1.62;64.94;94189.81;5049064;28;20211;-82
2021/11/30 05:07:02;;;;;;;9.68;7.40;;;2.70;78.00;;;1.65;64.97;94196.44;5033778;28;20688;-81
2021/11/30 05:09:29;;;;;;;7.50;5.72;;;2.70;78.00;;;1.67;64.98;94194.53;5050123;28;20218;-80
2021/11/30 05:11:56;;;;;;;5.30;4.80;;;2.70;78.00;;;1.68;65.14;94191.78;5050038;28;20298;-81
2021/11/30 05:14:23;;;;;;;5.28;4.70;;;2.70;78.00;;;1.67;65.15;94194.53;5034305;28;20310;-82
2021/11/30 05:16:50;;;;;;;4.57;4.07;;;2.80;78.00;;;1.62;65.10;94179.47;5103311;28;20202;-80
2021/11/30 05:19:17;;;;;;;4.47;3.75;;;2.70;77.90;;;1.71;64.96;94185.47;5053975;28;20238;-82
2021/11/30 05:21:45;;;;;;;5.78;4.78;;;2.70;77.90;;;1.70;64.83;94189.06;5054610;28;20199;-81
2021/11/30 05:24:12;;;;;;;5.13;4.47;;;2.70;77.80;;;1.71;64.76;94191.47;5084771;28;20222;-81
2021/11/30 05:26:40;;;;;;;8.65;4.97;;;2.80;77.90;;;1.71;64.92;94177.72;5086822;28;20254;-80
2021/11/30 05:29:08;;;;;;;18.52;8.85;;;2.80;77.90;;;1.71;64.92;94181.13;5047262;28;20215;-82
2021/11/30 05:31:35;;;;;;;8.10;5.40;;;2.80;77.90;;;1.72;65.29;94176.75;5040346;28;20199;-82
2021/11/30 05:34:03;;;;;;;12.13;7.05;;;2.80;77.90;;;1.73;65.39;94179.22;5073764;28;20234;-82
2021/11/30 05:36:33;;;;;;;10.70;6.40;;;2.80;77.90;;;1.73;65.17;94174.03;5084442;28;20208;-81
2021/11/30 05:39:03;;;;;;;7.68;5.50;;;2.80;77.90;;;1.72;65.33;94164.66;5103266;28;20222;-81
2021/11/30 05:41:30;;;;;;;12.10;8.25;;;2.80;77.80;;;1.74;65.00;94165.31;5103890;28;20192;-81
2021/11/30 05:43:58;;;;;;;9.45;6.75;;;2.80;77.90;;;1.74;64.72;94164.50;5072727;28;20215;-81
2021/11/30 05:46:25;;;;;;;10.52;7.10;;;2.80;77.90;;;1.72;65.08;94166.44;5052773;28;20192;-81
2021/11/30 05:48:52;;;;;;;6.85;5.40;;;2.80;77.90;;;1.72;64.97;94163.84;5037084;28;20215;-81
2021/11/30 05:51:19;;;;;;;7.30;5.90;;;2.80;77.90;;;1.75;65.23;94158.38;5078104;28;20249;-81
2021/11/30 05:53:47;;;;;;;6.95;5.50;;;2.80;78.00;;;1.73;64.87;94157.72;5073372;28;20603;-82
2021/11/30 05:56:14;;;;;;;6.07;5.15;;;2.80;77.90;;;1.69;64.69;94154.63;5040214;28;20235;-82
2021/11/30 05:58:44;;;;;;;7.00;5.63;;;2.80;77.90;;;1.72;65.03;94158.66;5073257;28;20348;-81
2021/11/30 06:01:55;;;;;;;6.18;5.45;;;2.80;77.90;;;1.74;64.90;94161.91;5039748;28;20207;-82
2021/11/30 06:04:02;;;;;;;6.55;5.05;;;2.80;77.90;;;1.76;65.09;94157.41;5078455;28;20779;-80
2021/11/30 06:06:36;;;;;;;7.47;5.82;;;2.80;77.90;;;1.76;65.00;94141.91;5071946;28;20234;-81
2021/11/30 06:09:09;;;;;;;6.68;5.60;;;2.80;77.90;;;1.76;64.76;94136.72;5056835;28;20219;-82
2021/11/30 06:11:37;;;;;;;7.63;5.88;;;2.80;77.90;;;1.68;64.90;94127.16;5056843;28;20221;-81
2021/11/30 06:14:04;;;;;;;6.70;5.63;;;2.80;77.90;;;1.71;65.29;94129.44;5089235;28;20284;-82
2021/11/30 06:16:32;;;;;;;7.32;5.85;;;2.80;77.90;;;1.74;65.06;94133.47;5086749;28;20241;-81
2021/11/30 06:19:00;;;;;;;6.40;5.38;;;2.80;78.00;;;1.76;64.88;94127.19;5053994;28;20612;-82
2021/11/30 06:21:28;;;;;;;6.55;5.20;;;2.80;78.00;;;1.70;65.18;94114.88;5070711;28;20602;-81
2021/11/30 06:23:55;;;;;;;6.65;5.20;;;2.80;78.00;;;1.76;65.20;94123.81;5054057;28;20700;-81
2021/11/30 06:26:22;;;;;;;9.07;6.78;;;2.80;78.00;;;1.75;65.34;94115.22;5037145;28;20679;-81
2021/11/30 06:28:49;;;;;;;7.32;5.35;;;2.80;78.10;;;1.77;65.23;94117.66;5085479;28;20208;-81
2021/11/30 06:31:17;;;;;;;6.75;5.28;;;2.80;78.10;;;1.78;65.24;94121.84;5069141;28;20338;-82
2021/11/30 06:33:44;;;;;;;6.20;4.85;;;2.80;78.10;;;1.80;65.33;94119.13;5085918;28;20259;-81
2021/11/30 06:36:11;;;;;;;5.32;4.57;;;2.80;78.20;;;1.83;65.30;94116.22;5096861;28;20212;-81
2021/11/30 06:38:38;;;;;;;6.40;4.68;;;2.80;78.10;;;1.86;65.17;94115.91;5036053;28;20618;-81
2021/11/30 06:41:06;;;;;;;6.28;4.65;;;2.80;78.20;;;1.90;65.15;94122.38;5069206;28;20291;-82
2021/11/30 06:43:33;;;;;;;5.20;4.20;;;2.90;78.30;;;1.93;65.23;94122.06;5049644;28;20245;-80
2021/11/30 06:46:00;;;;;;;5.70;4.80;;;2.90;78.30;;;1.94;65.25;94121.06;5072640;28;20199;-81
2021/11/30 06:48:27;;;;;;;5.68;5.18;;;2.90;78.20;;;1.97;65.50;94115.59;5058669;28;20223;-80
2021/11/30 06:50:56;;;;;;;5.43;4.90;;;3.00;78.30;;;2.00;65.33;94101.53;5086706;28;20199;-79
2021/11/30 06:53:24;;;;;;;5.28;4.28;;;3.00;78.30;;;2.03;65.27;94096.06;5070497;28;20393;-81
2021/11/30 06:55:52;;;;;;;4.25;3.75;;;3.00;78.30;;;2.06;65.46;94095.72;5054935;28;20256;-80
2021/11/30 06:58:19;;;;;;;4.93;4.43;;;3.00;78.40;;;2.10;65.18;94098.81;5053614;28;20215;-80
2021/11/30 07:00:49;;;;;;;4.78;4.32;;;3.00;78.30;;;2.13;65.51;94088.16;5054054;28;20218;-80
2021/11/30 07:03:16;;;;;;;4.03;3.63;;;3.10;78.40;;;2.17;65.32;94092.84;5054770;28;20241;-80
2021/11/30 07:05:45;;;;;;;4.20;3.35;;;3.10;78.40;;;2.22;65.10;94090.59;5055212;28;20234;-81
2021/11/30 07:08:18;;;;;;;4.07;3.45;;;3.20;78.40;;;2.28;65.15;94091.69;5038079;28;20187;-80
2021/11/30 07:11:02;;;;;;;4.63;3.90;;;3.20;78.50;;;2.33;64.85;94096.41;5038083;28;20223;-80
2021/11/30 07:13:32;;;;;;;4.03;3.53;;;3.20;78.40;;;2.34;65.07;94098.81;5085010;28;20191;-80
2021/11/30 07:16:02;;;;;;;4.05;3.58;;;3.30;78.40;;;2.38;64.84;94089.78;5060045;28;20183;-81
2021/11/30 07:18:32;;;;;;;4.13;3.72;;;3.30;78.30;;;2.42;64.85;94098.03;5054125;28;20699;-80
2021/11/30 07:21:01;;;;;;;5.55;4.40;;;3.30;78.30;;;2.44;64.67;94079.75;5071212;28;20595;-80
2021/11/30 07:23:30;;;;;;;3.80;3.25;;;3.40;78.30;;;2.50;64.68;94073.91;5070797;28;20656;-80
2021/11/30 07:25:59;;;;;;;3.50;3.08;;;3.40;78.30;;;2.55;64.92;94074.22;5052611;28;20464;-80
2021/11/30 07:28:30;;;;;;;6.22;5.05;;;3.40;78.30;;;2.64;64.93;94075.06;5080698;28;20242;-79
2021/11/30 07:31:10;;;;;;;3.55;3.25;;;3.50;78.50;;;2.68;64.71;94064.19;5052676;28;20203;-79
2021/11/30 07:33:47;;;;;;;3.33;3.03;;;3.60;78.40;;;2.77;64.55;94075.34;5084390;28;20225;-80
2021/11/30 07:36:18;;;;;;;3.38;2.80;;;3.60;78.30;;;2.83;64.61;94066.94;5069553;28;20222;-80
2021/11/30 07:38:47;;;;;;;2.85;2.65;;;3.70;78.30;;;2.84;64.11;94058.16;5049731;28;20261;-79
2021/11/30 07:41:17;;;;;;;4.22;3.72;;;3.70;78.10;;;2.86;64.07;94064.00;5038210;28;20661;-79
2021/11/30 07:43:45;;;;;;;3.83;2.97;;;3.70;78.00;;;2.86;63.92;94064.00;5054170;28;20284;-80
2021/11/30 07:46:12;;;;;;;3.17;2.83;;;3.80;77.90;;;2.88;64.00;94062.06;5087957;28;20207;-79
2021/11/30 07:48:40;;;;;;;2.72;2.53;;;3.80;78.00;;;2.92;63.96;94057.34;5054989;28;20210;-80
2021/11/30 07:51:09;;;;;;;2.90;2.60;;;3.80;77.80;;;2.88;64.05;94043.09;5051206;28;20274;-79
2021/11/30 07:53:40;;;;;;;3.65;3.00;;;3.80;77.80;;;2.93;64.07;94040.84;5035299;28;20206;-80
2021/11/30 07:56:07;;;;;;;3.47;2.70;;;3.90;77.80;;;2.99;64.44;94063.50;5045764;28;20207;-80
2021/11/30 07:58:35;;;;;;;2.83;2.60;;;3.90;77.90;;;3.01;63.56;94052.97;5044824;28;20199;-80
2021/11/30 08:01:03;;;;;;;2.35;2.15;;;3.90;77.80;;;3.11;63.75;94047.59;5018374;28;20227;-79
2021/11/30 08:03:30;;;;;;;4.57;2.78;;;4.00;78.00;;;3.18;63.85;94044.16;5034376;28;20562;-80
2021/11/30 08:05:58;;;;;;;2.08;1.98;;;4.00;78.00;;;3.25;63.65;94049.47;5051472;28;20303;-80
2021/11/30 08:08:25;;;;;;;2.70;2.38;;;4.00;77.90;;;3.28;63.63;94056.91;5037475;28;20241;-80
2021/11/30 08:10:53;;;;;;;2.00;1.80;;;4.10;77.80;;;3.33;63.47;94054.63;5085530;28;20199;-79
2021/11/30 08:13:20;;;;;;;2.90;2.10;;;4.20;77.70;;;3.31;62.86;94061.75;5069698;28;20199;-80
2021/11/30 08:15:47;;;;;;;2.58;2.17;;;4.20;77.50;;;3.32;62.95;94054.78;5051105;28;20604;-80
2021/11/30 08:18:15;;;;;;;4.72;2.50;;;4.20;77.40;;;3.32;62.94;94050.44;5051558;28;20254;-80
2021/11/30 08:20:42;;;;;;;2.45;2.05;;;4.20;77.40;;;3.38;63.19;94042.94;5086447;28;20211;-80
2021/11/30 08:23:12;;;;;;;2.15;1.95;;;4.30;77.40;;;3.47;63.39;94049.72;5086124;28;20479;-80
2021/11/30 08:25:39;;;;;;;3.20;2.30;;;4.30;77.60;;;3.48;62.45;94040.97;5053747;28;20211;-80
2021/11/30 08:28:07;;;;;;;2.38;2.05;;;4.30;77.30;;;3.51;62.44;94043.22;5053864;28;20199;-80
2021/11/30 08:30:47;;;;;;;2.13;1.95;;;4.40;77.10;;;3.55;62.51;94041.88;5050554;28;20234;-80
2021/11/30 08:33:16;;;;;;;2.30;2.10;;;4.40;77.40;;;3.63;62.10;94052.22;5037469;28;20191;-80
2021/11/30 08:35:44;;;;;;;2.17;1.92;;;4.40;77.20;;;3.61;62.12;94059.34;5070717;28;20230;-79
2021/11/30 08:38:12;;;;;;;2.00;1.80;;;4.50;77.20;;;3.67;62.77;94027.56;5069976;28;20654;-79
2021/11/30 08:40:39;;;;;;;2.22;1.70;;;4.50;77.30;;;3.72;62.96;94024.44;5076735;28;20307;-80
2021/11/30 08:43:07;;;;;;;2.10;1.90;;;4.50;77.30;;;3.73;62.46;94054.59;5036929;28;20191;-80
2021/11/30 08:45:34;;;;;;;1.98;1.73;;;4.60;77.30;;;3.70;62.58;94031.63;5101813;28;20239;-80
2021/11/30 08:48:01;;;;;;;2.72;2.42;;;4.60;77.20;;;3.72;62.64;94037.41;5050570;28;20211;-80
2021/11/30 08:50:30;;;;;;;2.40;2.13;;;4.60;77.20;;;3.73;62.58;94038.25;5066562;28;20215;-79
2021/11/30 08:52:58;;;;;;;2.83;2.40;;;4.60;77.00;;;3.66;62.71;94035.50;5038240;28;20239;-79
2021/11/30 08:55:25;;;;;;;3.00;2.30;;;4.60;76.80;;;3.58;63.17;94038.97;5054866;28;20574;-80
2021/11/30 08:57:52;;;;;;;2.70;2.42;;;4.60;77.10;;;3.46;63.32;94024.78;5055143;28;20245;-80
2021/11/30 09:00:26;;;;;;;3.00;2.22;;;4.60;77.20;;;3.46;64.08;94029.94;5071391;28;20215;-80
2021/11/30 09:02:55;;;;;;;2.70;2.25;;;4.50;77.40;;;3.46;64.06;94032.53;5037719;28;20241;-80
2021/11/30 09:05:24;;;;;;;4.75;3.22;;;4.50;77.50;;;3.50;64.33;94026.84;5093987;28;20216;-81
2021/11/30 09:07:51;;;;;;;4.00;2.53;;;4.50;78.40;;;3.52;64.16;94026.69;5042348;28;20246;-80
2021/11/30 09:10:20;;;;;;;2.33;2.15;;;4.50;77.60;;;3.50;64.44;94023.44;5073530;28;20685;-80
2021/11/30 09:12:47;;;;;;;2.75;2.47;;;4.50;77.70;;;3.42;64.79;94011.34;5092392;28;20241;-80
2021/11/30 09:15:16;;;;;;;2.42;2.20;;;4.50;77.80;;;3.37;64.92;94003.28;5056146;28;20310;-80
2021/11/30 09:17:50;;;;;;;3.60;2.38;;;4.40;77.80;;;3.41;64.58;94006.34;5057311;28;20575;-81
2021/11/30 09:20:17;;;;;;;2.67;2.15;;;4.40;77.80;;;3.37;64.74;93995.50;5073502;28;20215;-80
2021/11/30 09:22:45;;;;;;;2.40;2.20;;;4.40;77.80;;;3.31;64.50;94002.16;5057209;28;20207;-81
2021/11/30 09:25:12;;;;;;;2.30;2.10;;;4.30;77.80;;;3.29;65.06;93979.97;5064770;28;20223;-80
2021/11/30 09:27:39;;;;;;;2.95;2.33;;;4.30;77.90;;;3.24;65.37;93964.13;5069148;28;20305;-80
2021/11/30 09:30:09;;;;;;;2.72;2.38;;;4.30;78.10;;;3.30;65.14;93966.84;5051109;28;20219;-82
2021/11/30 09:32:37;;;;;;;2.28;1.90;;;4.30;78.10;;;3.30;65.47;93966.84;5052590;28;20596;-81
2021/11/30 09:35:10;;;;;;;1.80;1.70;;;4.30;78.30;;;3.33;65.27;93950.97;5072125;28;20226;-80
2021/11/30 09:37:39;;;;;;;2.47;2.05;;;4.30;78.40;;;3.36;65.47;93978.31;5083844;28;20234;-81
2021/11/30 09:40:13;;;;;;;2.00;1.90;;;4.30;78.40;;;3.35;64.86;93935.25;5053220;28;20628;-81
2021/11/30 09:42:43;;;;;;;2.17;1.98;;;4.30;78.20;;;3.30;65.67;93929.75;5056751;28;20192;-80
2021/11/30 09:45:12;;;;;;;2.83;2.28;;;4.30;78.30;;;3.30;65.01;93963.47;5056048;28;20215;-81
2021/11/30 09:47:41;;;;;;;2.22;2.03;;;4.30;78.20;;;3.27;64.98;93930.09;5086462;28;20207;-81
2021/11/30 09:50:14;;;;;;;2.17;1.98;;;4.20;78.10;;;3.19;64.96;93918.78;5068723;28;20735;-80
2021/11/30 09:52:41;;;;;;;2.10;1.90;;;4.20;78.30;;;3.21;65.24;93921.25;5053294;28;20249;-79
2021/11/30 09:55:14;;;;;;;3.33;2.08;;;4.20;78.30;;;3.14;65.61;93904.75;5074867;28;20227;-80
2021/11/30 09:57:42;;;;;;;2.78;2.05;;;4.20;78.30;;;3.18;65.34;93903.44;5033899;28;20318;-81
2021/11/30 10:00:13;;;;;;;2.42;2.15;;;4.20;78.30;;;3.18;65.36;93909.41;5051798;28;20328;-80
2021/11/30 10:02:55;;;;;;;2.22;1.92;;;4.10;78.30;;;3.17;65.70;93899.22;5056875;28;20207;-81
2021/11/30 10:05:24;;;;;;;2.15;1.95;;;4.10;78.40;;;3.19;65.56;93889.50;5071865;28;20726;-81
2021/11/30 10:07:54;;;;;;;2.35;2.00;;;4.10;78.40;;;3.18;65.86;93883.50;5053553;28;20210;-80
2021/11/30 10:10:38;;;;;;;3.00;2.20;;;4.10;78.40;;;3.23;65.44;93884.78;5055773;28;20251;-80
2021/11/30 10:13:05;;;;;;;2.20;2.00;;;4.20;78.50;;;3.28;65.54;93878.09;5035707;28;20215;-80
2021/11/30 10:16:06;;;;;;;2.63;2.33;;;4.20;78.60;;;3.28;65.75;93879.88;5070991;28;20259;-80
2021/11/30 10:18:43;;;;;;;2.70;2.40;;;4.20;78.60;;;3.28;65.76;93887.66;5066880;28;20254;-81
2021/11/30 10:21:19;;;;;;;2.97;2.20;;;4.20;78.60;;;3.27;66.00;93860.13;5051265;28;20194;-79
2021/11/30 10:24:02;;;;;;;4.35;2.97;;;4.20;78.50;;;3.25;65.74;93856.88;5038818;28;20222;-80
2021/11/30 10:26:41;;;;;;;4.40;2.35;;;4.20;78.60;;;3.26;65.40;93858.50;5054175;28;20211;-81
2021/11/30 10:29:13;;;;;;;3.28;2.50;;;4.20;79.40;;;3.23;65.63;93867.44;5073604;28;20743;-80
2021/11/30 10:31:45;;;;;;;3.95;2.20;;;4.20;78.60;;;3.21;65.70;93846.09;5047157;28;20200;-81
2021/11/30 10:34:28;;;;;;;3.65;2.63;;;4.20;78.50;;;3.19;65.81;93825.50;5037521;28;20235;-81
2021/11/30 10:37:06;;;;;;;4.45;3.25;;;4.20;78.60;;;3.19;65.63;93820.34;5053948;28;20269;-82
2021/11/30 10:39:39;;;;;;;3.25;2.95;;;4.10;78.40;;;3.15;65.87;93807.91;5071496;28;20695;-80
2021/11/30 10:42:18;;;;;;;4.63;4.20;;;4.10;78.60;;;3.20;65.45;93806.41;5051354;28;20258;-81
2021/11/30 10:44:51;;;;;;;3.42;2.60;;;4.10;78.50;;;3.23;66.07;93801.88;5064539;28;20786;-80
2021/11/30 10:47:28;;;;;;;3.88;2.28;;;4.10;78.60;;;3.21;66.05;93809.81;5087511;28;20283;-81